UUOO/VOZ METAR and TAF weather

Enter ICAO airport designator
Station Type Date Time Source
UUOO METAR 2020/01/18 15:30 UTC NOAA

UUOO 181530Z 27004MPS 9999 OVC017 00/M03 Q1029 R30/090060 NOSIG RMK QFE758


Station Type Date Time Source
UUOO Decoded METAR 2020/01/18 15:30 UTC NOAA

Voronez, Russia (UUOO) 51-39N 039-15E 104M
Jan 18, 2020 - 10:30 AM EST / 2020.01.18 1530 UTC
Wind: from the W (270 degrees) at 9 MPH (8 KT):0
Visibility: greater than 7 mile(s):0
Sky conditions: overcast
Temperature: 32 F (0 C)
Windchill: 24 F (-4 C):1
Dew Point: 26 F (-3 C)
Relative Humidity: 80%
Pressure (altimeter): 30.39 in. Hg (1029 hPa)
ob: UUOO 181530Z 27004MPS 9999 OVC017 00/M03 Q1029 R30/090060 NOSIG RMK QFE758
cycle: 15

Station Type Date Time Source
UUOO TAF 2019/08/12 03:33 UTC NOAA

TAF COR TAF COR UUOO 120159 1203/1212 31003MPS CAVOK

Example: see airport list